sensor_id;sensor_type;location;lat;lon;timestamp;P1;durP1;ratioP1;P2;durP2;ratioP2
6394;SDS011;3230;42.588;23.358;2023-04-25T00:02:18;11.50;;;8.40;;
6394;SDS011;3230;42.588;23.358;2023-04-25T00:04:44;14.90;;;8.93;;
6394;SDS011;3230;42.588;23.358;2023-04-25T00:07:10;14.30;;;10.00;;
6394;SDS011;3230;42.588;23.358;2023-04-25T00:09:35;12.17;;;8.90;;
6394;SDS011;3230;42.588;23.358;2023-04-25T00:12:01;12.93;;;9.03;;
6394;SDS011;3230;42.588;23.358;2023-04-25T00:14:26;11.83;;;8.87;;
6394;SDS011;3230;42.588;23.358;2023-04-25T00:16:52;13.43;;;8.90;;
6394;SDS011;3230;42.588;23.358;2023-04-25T00:19:19;11.77;;;9.00;;
6394;SDS011;3230;42.588;23.358;2023-04-25T00:21:44;13.40;;;8.60;;
6394;SDS011;3230;42.588;23.358;2023-04-25T00:24:11;11.27;;;8.00;;
6394;SDS011;3230;42.588;23.358;2023-04-25T00:26:37;12.13;;;8.77;;
6394;SDS011;3230;42.588;23.358;2023-04-25T00:29:02;12.70;;;8.23;;
6394;SDS011;3230;42.588;23.358;2023-04-25T00:31:28;11.50;;;8.13;;
6394;SDS011;3230;42.588;23.358;2023-04-25T00:33:54;15.53;;;10.07;;
6394;SDS011;3230;42.588;23.358;2023-04-25T00:36:19;19.60;;;12.67;;
6394;SDS011;3230;42.588;23.358;2023-04-25T00:38:45;27.20;;;16.57;;
6394;SDS011;3230;42.588;23.358;2023-04-25T00:41:10;32.63;;;17.57;;
6394;SDS011;3230;42.588;23.358;2023-04-25T00:43:37;26.53;;;15.33;;
6394;SDS011;3230;42.588;23.358;2023-04-25T00:46:02;18.60;;;11.50;;
6394;SDS011;3230;42.588;23.358;2023-04-25T00:48:28;12.00;;;8.50;;
6394;SDS011;3230;42.588;23.358;2023-04-25T00:50:54;10.17;;;6.67;;
6394;SDS011;3230;42.588;23.358;2023-04-25T00:53:22;11.50;;;8.40;;
6394;SDS011;3230;42.588;23.358;2023-04-25T00:55:49;8.40;;;6.53;;
6394;SDS011;3230;42.588;23.358;2023-04-25T00:58:19;24.83;;;9.50;;
6394;SDS011;3230;42.588;23.358;2023-04-25T01:00:46;14.40;;;9.37;;
6394;SDS011;3230;42.588;23.358;2023-04-25T01:03:14;10.30;;;7.33;;
6394;SDS011;3230;42.588;23.358;2023-04-25T01:05:45;9.27;;;7.30;;
6394;SDS011;3230;42.588;23.358;2023-04-25T01:08:12;10.60;;;6.73;;
6394;SDS011;3230;42.588;23.358;2023-04-25T01:10:38;9.53;;;6.10;;
6394;SDS011;3230;42.588;23.358;2023-04-25T01:13:03;7.00;;;5.43;;
6394;SDS011;3230;42.588;23.358;2023-04-25T01:15:29;4.60;;;3.73;;
6394;SDS011;3230;42.588;23.358;2023-04-25T01:17:55;4.60;;;2.93;;
6394;SDS011;3230;42.588;23.358;2023-04-25T01:20:23;2.27;;;2.07;;
6394;SDS011;3230;42.588;23.358;2023-04-25T01:22:50;2.70;;;2.40;;
6394;SDS011;3230;42.588;23.358;2023-04-25T01:25:16;2.60;;;2.20;;
6394;SDS011;3230;42.588;23.358;2023-04-25T01:27:42;6.47;;;2.93;;
6394;SDS011;3230;42.588;23.358;2023-04-25T01:30:07;5.10;;;4.10;;
6394;SDS011;3230;42.588;23.358;2023-04-25T01:32:33;5.27;;;3.60;;
6394;SDS011;3230;42.588;23.358;2023-04-25T01:35:06;2.47;;;2.27;;
6394;SDS011;3230;42.588;23.358;2023-04-25T01:37:35;2.03;;;1.83;;
6394;SDS011;3230;42.588;23.358;2023-04-25T01:40:04;2.67;;;1.70;;
6394;SDS011;3230;42.588;23.358;2023-04-25T01:42:33;2.20;;;1.93;;
6394;SDS011;3230;42.588;23.358;2023-04-25T01:45:00;2.83;;;2.00;;
6394;SDS011;3230;42.588;23.358;2023-04-25T01:47:26;1.50;;;1.40;;
6394;SDS011;3230;42.588;23.358;2023-04-25T01:49:52;4.70;;;3.30;;
6394;SDS011;3230;42.588;23.358;2023-04-25T01:52:17;3.80;;;2.53;;
6394;SDS011;3230;42.588;23.358;2023-04-25T01:54:43;2.50;;;1.83;;
6394;SDS011;3230;42.588;23.358;2023-04-25T01:57:12;1.90;;;1.50;;
6394;SDS011;3230;42.588;23.358;2023-04-25T01:59:38;1.90;;;1.80;;
6394;SDS011;3230;42.588;23.358;2023-04-25T02:02:05;1.90;;;1.70;;
6394;SDS011;3230;42.588;23.358;2023-04-25T02:04:31;2.20;;;2.00;;
6394;SDS011;3230;42.588;23.358;2023-04-25T02:06:57;2.97;;;2.27;;
6394;SDS011;3230;42.588;23.358;2023-04-25T02:09:22;10.33;;;2.57;;
6394;SDS011;3230;42.588;23.358;2023-04-25T02:11:48;3.67;;;2.60;;
6394;SDS011;3230;42.588;23.358;2023-04-25T02:14:13;4.90;;;3.50;;
6394;SDS011;3230;42.588;23.358;2023-04-25T02:16:39;4.30;;;3.30;;
6394;SDS011;3230;42.588;23.358;2023-04-25T02:19:05;5.13;;;3.80;;
6394;SDS011;3230;42.588;23.358;2023-04-25T02:21:31;4.90;;;3.70;;
6394;SDS011;3230;42.588;23.358;2023-04-25T02:23:56;6.40;;;4.70;;
6394;SDS011;3230;42.588;23.358;2023-04-25T02:26:22;6.80;;;4.80;;
6394;SDS011;3230;42.588;23.358;2023-04-25T02:28:51;6.53;;;5.07;;
6394;SDS011;3230;42.588;23.358;2023-04-25T02:31:16;7.23;;;5.03;;
6394;SDS011;3230;42.588;23.358;2023-04-25T02:33:42;6.90;;;4.83;;
6394;SDS011;3230;42.588;23.358;2023-04-25T02:36:08;6.60;;;5.07;;
6394;SDS011;3230;42.588;23.358;2023-04-25T02:38:33;9.93;;;6.30;;
6394;SDS011;3230;42.588;23.358;2023-04-25T02:40:58;9.07;;;5.87;;
6394;SDS011;3230;42.588;23.358;2023-04-25T02:43:24;7.87;;;6.23;;
6394;SDS011;3230;42.588;23.358;2023-04-25T02:45:49;10.30;;;6.47;;
6394;SDS011;3230;42.588;23.358;2023-04-25T02:48:15;8.13;;;6.13;;
6394;SDS011;3230;42.588;23.358;2023-04-25T02:50:40;8.30;;;6.03;;
6394;SDS011;3230;42.588;23.358;2023-04-25T02:53:06;8.40;;;5.73;;
6394;SDS011;3230;42.588;23.358;2023-04-25T02:55:31;8.70;;;6.50;;
6394;SDS011;3230;42.588;23.358;2023-04-25T02:57:56;7.60;;;6.50;;
6394;SDS011;3230;42.588;23.358;2023-04-25T03:00:22;8.73;;;6.63;;
6394;SDS011;3230;42.588;23.358;2023-04-25T03:02:47;8.77;;;6.47;;
6394;SDS011;3230;42.588;23.358;2023-04-25T03:05:13;10.40;;;6.73;;
6394;SDS011;3230;42.588;23.358;2023-04-25T03:07:39;9.60;;;6.67;;
6394;SDS011;3230;42.588;23.358;2023-04-25T03:10:07;9.10;;;6.57;;
6394;SDS011;3230;42.588;23.358;2023-04-25T03:12:33;10.70;;;7.23;;
6394;SDS011;3230;42.588;23.358;2023-04-25T03:14:58;8.13;;;6.23;;
6394;SDS011;3230;42.588;23.358;2023-04-25T03:17:24;8.63;;;5.87;;
6394;SDS011;3230;42.588;23.358;2023-04-25T03:19:49;7.03;;;5.33;;
6394;SDS011;3230;42.588;23.358;2023-04-25T03:22:15;6.70;;;5.00;;
6394;SDS011;3230;42.588;23.358;2023-04-25T03:24:40;5.50;;;4.30;;
6394;SDS011;3230;42.588;23.358;2023-04-25T03:27:06;7.23;;;4.70;;
6394;SDS011;3230;42.588;23.358;2023-04-25T03:29:31;5.17;;;4.40;;
6394;SDS011;3230;42.588;23.358;2023-04-25T03:31:57;7.87;;;4.40;;
6394;SDS011;3230;42.588;23.358;2023-04-25T03:34:22;5.47;;;4.80;;
6394;SDS011;3230;42.588;23.358;2023-04-25T03:36:48;4.93;;;4.30;;
6394;SDS011;3230;42.588;23.358;2023-04-25T03:39:14;9.43;;;4.80;;
6394;SDS011;3230;42.588;23.358;2023-04-25T03:41:39;7.00;;;5.07;;
6394;SDS011;3230;42.588;23.358;2023-04-25T03:44:05;5.20;;;4.20;;
6394;SDS011;3230;42.588;23.358;2023-04-25T03:46:30;5.30;;;3.77;;
6394;SDS011;3230;42.588;23.358;2023-04-25T03:48:56;4.77;;;4.17;;
6394;SDS011;3230;42.588;23.358;2023-04-25T03:51:21;4.67;;;4.20;;
6394;SDS011;3230;42.588;23.358;2023-04-25T03:53:47;4.80;;;4.30;;
6394;SDS011;3230;42.588;23.358;2023-04-25T03:56:13;7.03;;;4.90;;
6394;SDS011;3230;42.588;23.358;2023-04-25T03:58:38;5.70;;;4.73;;
6394;SDS011;3230;42.588;23.358;2023-04-25T04:01:03;5.77;;;4.73;;
6394;SDS011;3230;42.588;23.358;2023-04-25T04:03:32;4.70;;;4.30;;
6394;SDS011;3230;42.588;23.358;2023-04-25T04:05:59;5.07;;;4.57;;
6394;SDS011;3230;42.588;23.358;2023-04-25T04:08:24;4.80;;;4.13;;
6394;SDS011;3230;42.588;23.358;2023-04-25T04:10:50;6.70;;;4.90;;
6394;SDS011;3230;42.588;23.358;2023-04-25T04:13:15;5.03;;;4.20;;
6394;SDS011;3230;42.588;23.358;2023-04-25T04:15:41;4.77;;;4.10;;
6394;SDS011;3230;42.588;23.358;2023-04-25T04:18:06;4.30;;;3.70;;
6394;SDS011;3230;42.588;23.358;2023-04-25T04:20:32;4.80;;;4.30;;
6394;SDS011;3230;42.588;23.358;2023-04-25T04:22:57;4.87;;;4.23;;
6394;SDS011;3230;42.588;23.358;2023-04-25T04:25:23;5.07;;;4.30;;
6394;SDS011;3230;42.588;23.358;2023-04-25T04:27:49;5.00;;;4.13;;
6394;SDS011;3230;42.588;23.358;2023-04-25T04:30:16;5.50;;;4.30;;
6394;SDS011;3230;42.588;23.358;2023-04-25T04:32:42;5.17;;;4.40;;
6394;SDS011;3230;42.588;23.358;2023-04-25T04:35:08;4.80;;;4.20;;
6394;SDS011;3230;42.588;23.358;2023-04-25T04:37:34;4.30;;;3.90;;
6394;SDS011;3230;42.588;23.358;2023-04-25T04:39:59;4.60;;;3.90;;
6394;SDS011;3230;42.588;23.358;2023-04-25T04:42:30;4.20;;;3.30;;
6394;SDS011;3230;42.588;23.358;2023-04-25T04:44:56;3.77;;;2.80;;
6394;SDS011;3230;42.588;23.358;2023-04-25T04:47:23;7.67;;;5.40;;
6394;SDS011;3230;42.588;23.358;2023-04-25T04:49:49;7.20;;;5.17;;
6394;SDS011;3230;42.588;23.358;2023-04-25T04:52:15;5.10;;;4.10;;
6394;SDS011;3230;42.588;23.358;2023-04-25T04:54:40;3.37;;;3.07;;
6394;SDS011;3230;42.588;23.358;2023-04-25T04:57:05;6.67;;;3.83;;
6394;SDS011;3230;42.588;23.358;2023-04-25T04:59:31;5.87;;;3.90;;
6394;SDS011;3230;42.588;23.358;2023-04-25T05:01:56;4.23;;;3.50;;
6394;SDS011;3230;42.588;23.358;2023-04-25T05:04:21;3.80;;;3.33;;
6394;SDS011;3230;42.588;23.358;2023-04-25T05:06:47;5.10;;;4.00;;
6394;SDS011;3230;42.588;23.358;2023-04-25T05:09:12;6.90;;;5.00;;
6394;SDS011;3230;42.588;23.358;2023-04-25T05:11:38;3.80;;;3.40;;
6394;SDS011;3230;42.588;23.358;2023-04-25T05:14:03;4.30;;;3.47;;
6394;SDS011;3230;42.588;23.358;2023-04-25T05:16:28;4.97;;;3.07;;
6394;SDS011;3230;42.588;23.358;2023-04-25T05:18:54;3.93;;;3.50;;
6394;SDS011;3230;42.588;23.358;2023-04-25T05:21:19;4.83;;;3.40;;
6394;SDS011;3230;42.588;23.358;2023-04-25T05:23:45;3.80;;;3.40;;
6394;SDS011;3230;42.588;23.358;2023-04-25T05:26:10;3.63;;;3.03;;
6394;SDS011;3230;42.588;23.358;2023-04-25T05:28:39;4.33;;;3.60;;
6394;SDS011;3230;42.588;23.358;2023-04-25T05:31:05;5.13;;;4.00;;
6394;SDS011;3230;42.588;23.358;2023-04-25T05:33:31;9.30;;;6.67;;
6394;SDS011;3230;42.588;23.358;2023-04-25T05:35:57;8.73;;;6.07;;
6394;SDS011;3230;42.588;23.358;2023-04-25T05:38:22;7.63;;;5.53;;
6394;SDS011;3230;42.588;23.358;2023-04-25T05:40:47;5.40;;;4.50;;
6394;SDS011;3230;42.588;23.358;2023-04-25T05:43:13;7.77;;;5.00;;
6394;SDS011;3230;42.588;23.358;2023-04-25T05:45:38;21.30;;;9.20;;
6394;SDS011;3230;42.588;23.358;2023-04-25T05:48:04;14.27;;;9.57;;
6394;SDS011;3230;42.588;23.358;2023-04-25T05:50:29;15.07;;;9.60;;
6394;SDS011;3230;42.588;23.358;2023-04-25T05:52:55;28.30;;;10.40;;
6394;SDS011;3230;42.588;23.358;2023-04-25T05:55:20;17.60;;;10.03;;
6394;SDS011;3230;42.588;23.358;2023-04-25T05:57:45;12.50;;;8.70;;
6394;SDS011;3230;42.588;23.358;2023-04-25T06:00:14;13.07;;;9.57;;
6394;SDS011;3230;42.588;23.358;2023-04-25T06:02:40;13.80;;;10.07;;
6394;SDS011;3230;42.588;23.358;2023-04-25T06:05:07;14.70;;;9.60;;
6394;SDS011;3230;42.588;23.358;2023-04-25T06:07:33;10.17;;;6.57;;
6394;SDS011;3230;42.588;23.358;2023-04-25T06:09:58;10.97;;;8.00;;
6394;SDS011;3230;42.588;23.358;2023-04-25T06:12:25;12.20;;;7.90;;
6394;SDS011;3230;42.588;23.358;2023-04-25T06:14:51;8.23;;;5.93;;
6394;SDS011;3230;42.588;23.358;2023-04-25T06:17:16;8.27;;;5.00;;
6394;SDS011;3230;42.588;23.358;2023-04-25T06:19:41;5.10;;;4.40;;
6394;SDS011;3230;42.588;23.358;2023-04-25T06:22:07;6.37;;;4.80;;
6394;SDS011;3230;42.588;23.358;2023-04-25T06:24:32;9.33;;;6.57;;
6394;SDS011;3230;42.588;23.358;2023-04-25T06:26:58;7.60;;;5.17;;
6394;SDS011;3230;42.588;23.358;2023-04-25T06:29:24;8.60;;;6.47;;
6394;SDS011;3230;42.588;23.358;2023-04-25T06:31:49;7.97;;;5.60;;
6394;SDS011;3230;42.588;23.358;2023-04-25T06:34:15;5.83;;;4.10;;
6394;SDS011;3230;42.588;23.358;2023-04-25T06:36:40;8.33;;;4.53;;
6394;SDS011;3230;42.588;23.358;2023-04-25T06:39:06;7.40;;;4.87;;
6394;SDS011;3230;42.588;23.358;2023-04-25T06:41:32;8.77;;;5.40;;
6394;SDS011;3230;42.588;23.358;2023-04-25T06:43:57;5.00;;;4.40;;
6394;SDS011;3230;42.588;23.358;2023-04-25T06:46:23;6.10;;;4.17;;
6394;SDS011;3230;42.588;23.358;2023-04-25T06:48:48;5.10;;;4.23;;
6394;SDS011;3230;42.588;23.358;2023-04-25T06:51:14;6.30;;;4.50;;
6394;SDS011;3230;42.588;23.358;2023-04-25T06:53:39;5.60;;;3.70;;
6394;SDS011;3230;42.588;23.358;2023-04-25T06:56:05;6.20;;;5.00;;
6394;SDS011;3230;42.588;23.358;2023-04-25T06:58:31;7.27;;;5.80;;
6394;SDS011;3230;42.588;23.358;2023-04-25T07:00:56;8.33;;;5.20;;
6394;SDS011;3230;42.588;23.358;2023-04-25T07:03:22;5.20;;;4.30;;
6394;SDS011;3230;42.588;23.358;2023-04-25T07:05:47;5.50;;;4.80;;
6394;SDS011;3230;42.588;23.358;2023-04-25T07:08:13;4.90;;;4.40;;
6394;SDS011;3230;42.588;23.358;2023-04-25T07:10:38;5.90;;;4.97;;
6394;SDS011;3230;42.588;23.358;2023-04-25T07:13:05;9.50;;;4.87;;
6394;SDS011;3230;42.588;23.358;2023-04-25T07:15:30;6.20;;;4.67;;
6394;SDS011;3230;42.588;23.358;2023-04-25T07:17:55;6.10;;;5.17;;
6394;SDS011;3230;42.588;23.358;2023-04-25T07:20:21;5.80;;;2.97;;
6394;SDS011;3230;42.588;23.358;2023-04-25T07:22:46;3.10;;;2.73;;
6394;SDS011;3230;42.588;23.358;2023-04-25T07:25:12;4.33;;;3.53;;
6394;SDS011;3230;42.588;23.358;2023-04-25T07:27:37;3.70;;;3.00;;
6394;SDS011;3230;42.588;23.358;2023-04-25T07:30:04;6.37;;;3.00;;
6394;SDS011;3230;42.588;23.358;2023-04-25T07:32:30;5.70;;;3.77;;
6394;SDS011;3230;42.588;23.358;2023-04-25T07:34:55;4.57;;;3.27;;
6394;SDS011;3230;42.588;23.358;2023-04-25T07:37:21;3.50;;;3.17;;
6394;SDS011;3230;42.588;23.358;2023-04-25T07:39:46;5.77;;;3.90;;
6394;SDS011;3230;42.588;23.358;2023-04-25T07:42:12;5.27;;;4.00;;
6394;SDS011;3230;42.588;23.358;2023-04-25T07:44:38;4.17;;;3.10;;
6394;SDS011;3230;42.588;23.358;2023-04-25T07:47:08;5.63;;;3.37;;
6394;SDS011;3230;42.588;23.358;2023-04-25T07:49:37;3.53;;;3.23;;
6394;SDS011;3230;42.588;23.358;2023-04-25T07:52:03;7.10;;;3.27;;
6394;SDS011;3230;42.588;23.358;2023-04-25T07:54:31;3.50;;;3.00;;
6394;SDS011;3230;42.588;23.358;2023-04-25T07:56:57;2.63;;;2.43;;
6394;SDS011;3230;42.588;23.358;2023-04-25T07:59:23;2.83;;;2.53;;
6394;SDS011;3230;42.588;23.358;2023-04-25T08:01:48;2.90;;;2.37;;
6394;SDS011;3230;42.588;23.358;2023-04-25T08:04:14;8.20;;;2.37;;
6394;SDS011;3230;42.588;23.358;2023-04-25T08:06:39;2.53;;;2.23;;
6394;SDS011;3230;42.588;23.358;2023-04-25T08:09:05;4.10;;;2.20;;
6394;SDS011;3230;42.588;23.358;2023-04-25T08:11:31;3.83;;;2.17;;
6394;SDS011;3230;42.588;23.358;2023-04-25T08:13:56;2.20;;;2.00;;
6394;SDS011;3230;42.588;23.358;2023-04-25T08:16:22;2.30;;;2.10;;
6394;SDS011;3230;42.588;23.358;2023-04-25T08:18:47;3.10;;;2.07;;
6394;SDS011;3230;42.588;23.358;2023-04-25T08:21:13;3.20;;;2.70;;
6394;SDS011;3230;42.588;23.358;2023-04-25T08:23:40;1.90;;;1.77;;
6394;SDS011;3230;42.588;23.358;2023-04-25T08:26:05;3.13;;;2.00;;
6394;SDS011;3230;42.588;23.358;2023-04-25T08:28:31;2.00;;;1.80;;
6394;SDS011;3230;42.588;23.358;2023-04-25T08:30:57;3.80;;;2.30;;
6394;SDS011;3230;42.588;23.358;2023-04-25T08:33:22;2.30;;;1.83;;
6394;SDS011;3230;42.588;23.358;2023-04-25T08:35:47;2.00;;;1.80;;
6394;SDS011;3230;42.588;23.358;2023-04-25T08:38:13;1.83;;;1.70;;
6394;SDS011;3230;42.588;23.358;2023-04-25T08:40:39;2.33;;;1.80;;
6394;SDS011;3230;42.588;23.358;2023-04-25T08:43:08;2.10;;;1.90;;
6394;SDS011;3230;42.588;23.358;2023-04-25T08:45:38;2.10;;;1.90;;
6394;SDS011;3230;42.588;23.358;2023-04-25T08:48:06;2.27;;;1.93;;
6394;SDS011;3230;42.588;23.358;2023-04-25T08:50:36;10.60;;;7.00;;
6394;SDS011;3230;42.588;23.358;2023-04-25T08:53:04;6.67;;;4.57;;
6394;SDS011;3230;42.588;23.358;2023-04-25T08:55:34;2.73;;;1.70;;
6394;SDS011;3230;42.588;23.358;2023-04-25T08:58:04;1.50;;;1.40;;
6394;SDS011;3230;42.588;23.358;2023-04-25T09:00:30;4.80;;;4.30;;
6394;SDS011;3230;42.588;23.358;2023-04-25T09:02:56;6.13;;;2.30;;
6394;SDS011;3230;42.588;23.358;2023-04-25T09:05:22;1.90;;;1.70;;
6394;SDS011;3230;42.588;23.358;2023-04-25T09:07:48;2.17;;;1.90;;
6394;SDS011;3230;42.588;23.358;2023-04-25T09:10:13;6.30;;;1.90;;
6394;SDS011;3230;42.588;23.358;2023-04-25T09:12:39;2.00;;;1.70;;
6394;SDS011;3230;42.588;23.358;2023-04-25T09:15:11;2.13;;;1.70;;
6394;SDS011;3230;42.588;23.358;2023-04-25T09:17:38;1.70;;;1.60;;
6394;SDS011;3230;42.588;23.358;2023-04-25T09:20:07;4.00;;;2.37;;
6394;SDS011;3230;42.588;23.358;2023-04-25T09:22:34;2.17;;;1.80;;
6394;SDS011;3230;42.588;23.358;2023-04-25T09:25:08;2.07;;;1.87;;
6394;SDS011;3230;42.588;23.358;2023-04-25T09:27:48;5.57;;;2.00;;
6394;SDS011;3230;42.588;23.358;2023-04-25T09:30:16;3.87;;;2.53;;
6394;SDS011;3230;42.588;23.358;2023-04-25T09:32:42;4.90;;;3.10;;
6394;SDS011;3230;42.588;23.358;2023-04-25T09:35:08;5.50;;;3.47;;
6394;SDS011;3230;42.588;23.358;2023-04-25T09:37:34;6.50;;;3.73;;
6394;SDS011;3230;42.588;23.358;2023-04-25T09:40:00;5.07;;;3.80;;
6394;SDS011;3230;42.588;23.358;2023-04-25T09:42:30;6.70;;;3.33;;
6394;SDS011;3230;42.588;23.358;2023-04-25T09:44:59;7.70;;;4.17;;
6394;SDS011;3230;42.588;23.358;2023-04-25T09:47:26;5.37;;;4.47;;
6394;SDS011;3230;42.588;23.358;2023-04-25T09:49:53;6.43;;;4.53;;
6394;SDS011;3230;42.588;23.358;2023-04-25T09:52:21;7.27;;;4.70;;
6394;SDS011;3230;42.588;23.358;2023-04-25T09:54:50;7.87;;;4.80;;
6394;SDS011;3230;42.588;23.358;2023-04-25T09:57:19;15.60;;;5.43;;
6394;SDS011;3230;42.588;23.358;2023-04-25T09:59:47;3.77;;;2.70;;
6394;SDS011;3230;42.588;23.358;2023-04-25T10:02:15;4.57;;;2.47;;
6394;SDS011;3230;42.588;23.358;2023-04-25T10:04:49;2.40;;;2.10;;
6394;SDS011;3230;42.588;23.358;2023-04-25T10:07:18;4.70;;;2.20;;
6394;SDS011;3230;42.588;23.358;2023-04-25T10:09:47;5.03;;;2.30;;
6394;SDS011;3230;42.588;23.358;2023-04-25T10:12:14;4.83;;;2.93;;
6394;SDS011;3230;42.588;23.358;2023-04-25T10:14:42;5.10;;;3.53;;
6394;SDS011;3230;42.588;23.358;2023-04-25T10:17:08;4.50;;;2.80;;
6394;SDS011;3230;42.588;23.358;2023-04-25T10:19:35;3.20;;;1.63;;
6394;SDS011;3230;42.588;23.358;2023-04-25T10:22:06;1.30;;;1.20;;
6394;SDS011;3230;42.588;23.358;2023-04-25T10:24:34;1.70;;;1.30;;
6394;SDS011;3230;42.588;23.358;2023-04-25T10:27:02;2.40;;;1.10;;
6394;SDS011;3230;42.588;23.358;2023-04-25T10:29:27;1.47;;;1.00;;
6394;SDS011;3230;42.588;23.358;2023-04-25T10:31:53;1.67;;;1.20;;
6394;SDS011;3230;42.588;23.358;2023-04-25T10:34:18;1.33;;;1.10;;
6394;SDS011;3230;42.588;23.358;2023-04-25T10:36:51;1.30;;;1.00;;
6394;SDS011;3230;42.588;23.358;2023-04-25T10:39:21;1.40;;;0.90;;
6394;SDS011;3230;42.588;23.358;2023-04-25T10:41:58;1.23;;;1.10;;
6394;SDS011;3230;42.588;23.358;2023-04-25T10:44:27;1.97;;;1.00;;
6394;SDS011;3230;42.588;23.358;2023-04-25T10:46:58;3.10;;;1.30;;
6394;SDS011;3230;42.588;23.358;2023-04-25T10:54:51;1.30;;;1.10;;
6394;SDS011;3230;42.588;23.358;2023-04-25T11:00:05;1.60;;;1.10;;
6394;SDS011;3230;42.588;23.358;2023-04-25T11:02:48;1.57;;;1.20;;
6394;SDS011;3230;42.588;23.358;2023-04-25T11:05:22;1.73;;;1.23;;
6394;SDS011;3230;42.588;23.358;2023-04-25T11:07:51;1.80;;;1.30;;
6394;SDS011;3230;42.588;23.358;2023-04-25T11:10:19;1.33;;;1.20;;
6394;SDS011;3230;42.588;23.358;2023-04-25T11:12:45;2.07;;;1.20;;
6394;SDS011;3230;42.588;23.358;2023-04-25T11:15:12;1.63;;;1.20;;
6394;SDS011;3230;42.588;23.358;2023-04-25T11:17:38;2.13;;;0.90;;
6394;SDS011;3230;42.588;23.358;2023-04-25T11:20:05;1.97;;;1.50;;
6394;SDS011;3230;42.588;23.358;2023-04-25T11:22:37;1.73;;;1.20;;
6394;SDS011;3230;42.588;23.358;2023-04-25T11:25:06;2.43;;;1.93;;
6394;SDS011;3230;42.588;23.358;2023-04-25T11:27:32;1.43;;;1.33;;
6394;SDS011;3230;42.588;23.358;2023-04-25T11:30:09;3.37;;;1.70;;
6394;SDS011;3230;42.588;23.358;2023-04-25T11:32:35;0.83;;;0.73;;
6394;SDS011;3230;42.588;23.358;2023-04-25T11:35:01;0.80;;;0.80;;
6394;SDS011;3230;42.588;23.358;2023-04-25T11:37:26;1.10;;;0.90;;
6394;SDS011;3230;42.588;23.358;2023-04-25T11:39:52;4.33;;;2.30;;
6394;SDS011;3230;42.588;23.358;2023-04-25T11:42:17;3.07;;;1.37;;
6394;SDS011;3230;42.588;23.358;2023-04-25T11:44:42;1.40;;;1.20;;
6394;SDS011;3230;42.588;23.358;2023-04-25T11:47:08;3.67;;;2.30;;
6394;SDS011;3230;42.588;23.358;2023-04-25T11:49:34;2.20;;;1.80;;
6394;SDS011;3230;42.588;23.358;2023-04-25T11:52:05;5.10;;;2.07;;
6394;SDS011;3230;42.588;23.358;2023-04-25T11:54:34;5.30;;;1.70;;
6394;SDS011;3230;42.588;23.358;2023-04-25T11:57:00;3.13;;;1.67;;
6394;SDS011;3230;42.588;23.358;2023-04-25T11:59:26;2.40;;;2.03;;
6394;SDS011;3230;42.588;23.358;2023-04-25T12:01:52;6.40;;;2.87;;
6394;SDS011;3230;42.588;23.358;2023-04-25T12:04:21;4.83;;;1.50;;
6394;SDS011;3230;42.588;23.358;2023-04-25T12:06:49;6.37;;;3.97;;
6394;SDS011;3230;42.588;23.358;2023-04-25T12:09:20;1.70;;;1.20;;
6394;SDS011;3230;42.588;23.358;2023-04-25T12:11:52;2.80;;;1.90;;
6394;SDS011;3230;42.588;23.358;2023-04-25T12:14:23;3.60;;;1.70;;
6394;SDS011;3230;42.588;23.358;2023-04-25T12:17:00;4.70;;;2.77;;
6394;SDS011;3230;42.588;23.358;2023-04-25T12:19:36;8.30;;;4.90;;
6394;SDS011;3230;42.588;23.358;2023-04-25T12:22:18;2.40;;;2.00;;
6394;SDS011;3230;42.588;23.358;2023-04-25T12:24:48;6.60;;;3.83;;
6394;SDS011;3230;42.588;23.358;2023-04-25T12:27:14;3.47;;;2.37;;
6394;SDS011;3230;42.588;23.358;2023-04-25T12:29:49;4.60;;;2.50;;
6394;SDS011;3230;42.588;23.358;2023-04-25T12:32:16;7.20;;;2.90;;
6394;SDS011;3230;42.588;23.358;2023-04-25T12:34:42;2.90;;;2.00;;
6394;SDS011;3230;42.588;23.358;2023-04-25T12:37:08;1.33;;;1.23;;
6394;SDS011;3230;42.588;23.358;2023-04-25T12:39:34;9.53;;;5.77;;
6394;SDS011;3230;42.588;23.358;2023-04-25T12:41:59;23.80;;;10.80;;
6394;SDS011;3230;42.588;23.358;2023-04-25T12:44:25;5.40;;;3.10;;
6394;SDS011;3230;42.588;23.358;2023-04-25T12:46:50;2.60;;;1.67;;
6394;SDS011;3230;42.588;23.358;2023-04-25T12:49:16;6.67;;;4.50;;
6394;SDS011;3230;42.588;23.358;2023-04-25T12:51:41;1.27;;;1.07;;
6394;SDS011;3230;42.588;23.358;2023-04-25T12:54:07;0.97;;;0.90;;
6394;SDS011;3230;42.588;23.358;2023-04-25T12:56:33;1.97;;;1.10;;
6394;SDS011;3230;42.588;23.358;2023-04-25T12:59:00;1.50;;;1.40;;
6394;SDS011;3230;42.588;23.358;2023-04-25T13:01:26;3.23;;;1.07;;
6394;SDS011;3230;42.588;23.358;2023-04-25T13:03:51;4.40;;;1.23;;
6394;SDS011;3230;42.588;23.358;2023-04-25T13:06:18;2.03;;;1.80;;
6394;SDS011;3230;42.588;23.358;2023-04-25T13:08:44;1.87;;;1.00;;
6394;SDS011;3230;42.588;23.358;2023-04-25T13:11:10;1.20;;;1.10;;
6394;SDS011;3230;42.588;23.358;2023-04-25T13:13:36;1.37;;;1.13;;
6394;SDS011;3230;42.588;23.358;2023-04-25T13:16:02;1.93;;;1.50;;
6394;SDS011;3230;42.588;23.358;2023-04-25T13:18:28;1.53;;;1.30;;
6394;SDS011;3230;42.588;23.358;2023-04-25T13:20:54;1.70;;;1.20;;
6394;SDS011;3230;42.588;23.358;2023-04-25T13:23:20;2.20;;;1.03;;
6394;SDS011;3230;42.588;23.358;2023-04-25T13:25:46;1.37;;;1.03;;
6394;SDS011;3230;42.588;23.358;2023-04-25T13:28:12;1.07;;;1.00;;
6394;SDS011;3230;42.588;23.358;2023-04-25T13:30:38;2.47;;;0.93;;
6394;SDS011;3230;42.588;23.358;2023-04-25T13:33:04;1.57;;;1.10;;
6394;SDS011;3230;42.588;23.358;2023-04-25T13:35:32;6.13;;;4.50;;
6394;SDS011;3230;42.588;23.358;2023-04-25T13:37:58;0.90;;;0.90;;
6394;SDS011;3230;42.588;23.358;2023-04-25T13:40:23;1.80;;;1.10;;
6394;SDS011;3230;42.588;23.358;2023-04-25T13:42:49;2.97;;;1.93;;
6394;SDS011;3230;42.588;23.358;2023-04-25T13:45:14;0.80;;;0.80;;
6394;SDS011;3230;42.588;23.358;2023-04-25T13:47:40;2.43;;;1.40;;
6394;SDS011;3230;42.588;23.358;2023-04-25T13:50:05;3.20;;;1.87;;
6394;SDS011;3230;42.588;23.358;2023-04-25T13:52:32;7.97;;;5.20;;
6394;SDS011;3230;42.588;23.358;2023-04-25T13:54:58;2.53;;;1.87;;
6394;SDS011;3230;42.588;23.358;2023-04-25T13:57:23;4.67;;;2.23;;
6394;SDS011;3230;42.588;23.358;2023-04-25T13:59:50;2.33;;;1.87;;
6394;SDS011;3230;42.588;23.358;2023-04-25T14:02:16;1.40;;;1.10;;
6394;SDS011;3230;42.588;23.358;2023-04-25T14:04:42;1.70;;;1.13;;
6394;SDS011;3230;42.588;23.358;2023-04-25T14:07:07;2.70;;;1.73;;
6394;SDS011;3230;42.588;23.358;2023-04-25T14:09:33;2.17;;;1.90;;
6394;SDS011;3230;42.588;23.358;2023-04-25T14:11:59;5.87;;;3.77;;
6394;SDS011;3230;42.588;23.358;2023-04-25T14:14:25;6.10;;;3.60;;
6394;SDS011;3230;42.588;23.358;2023-04-25T14:16:51;4.67;;;3.53;;
6394;SDS011;3230;42.588;23.358;2023-04-25T14:19:18;4.00;;;3.07;;
6394;SDS011;3230;42.588;23.358;2023-04-25T14:21:45;2.67;;;2.00;;
6394;SDS011;3230;42.588;23.358;2023-04-25T14:24:11;3.13;;;2.30;;
6394;SDS011;3230;42.588;23.358;2023-04-25T14:26:37;2.90;;;2.40;;
6394;SDS011;3230;42.588;23.358;2023-04-25T14:29:03;3.37;;;2.40;;
6394;SDS011;3230;42.588;23.358;2023-04-25T14:31:30;5.17;;;3.10;;
6394;SDS011;3230;42.588;23.358;2023-04-25T14:33:56;6.13;;;3.40;;
6394;SDS011;3230;42.588;23.358;2023-04-25T14:36:22;3.67;;;2.60;;
6394;SDS011;3230;42.588;23.358;2023-04-25T14:38:47;2.40;;;1.37;;
6394;SDS011;3230;42.588;23.358;2023-04-25T14:41:13;3.40;;;2.27;;
6394;SDS011;3230;42.588;23.358;2023-04-25T14:43:38;3.83;;;2.67;;
6394;SDS011;3230;42.588;23.358;2023-04-25T14:46:05;8.57;;;4.17;;
6394;SDS011;3230;42.588;23.358;2023-04-25T14:48:31;9.80;;;5.27;;
6394;SDS011;3230;42.588;23.358;2023-04-25T14:50:57;10.03;;;5.00;;
6394;SDS011;3230;42.588;23.358;2023-04-25T14:53:24;4.90;;;2.90;;
6394;SDS011;3230;42.588;23.358;2023-04-25T14:55:50;2.00;;;1.80;;
6394;SDS011;3230;42.588;23.358;2023-04-25T14:58:15;6.77;;;3.50;;
6394;SDS011;3230;42.588;23.358;2023-04-25T15:00:41;10.90;;;4.63;;
6394;SDS011;3230;42.588;23.358;2023-04-25T15:03:08;6.00;;;3.70;;
6394;SDS011;3230;42.588;23.358;2023-04-25T15:05:36;2.20;;;2.00;;